Time;durP1;ratioP1;P1;durP2;ratioP2;P2;SDS_P1;SDS_P2;PMS_P1;PMS_P2;Temp;Humidity;BMP_temperature;BMP_pressure;BME280_temperature;BME280_humidity;BME280_pressure;Samples;Min_cycle;Max_cycle;Signal;HPM_P1;HPM_P2
2021/07/19 00:00:38;;;;;;;4.33;3.93;;;24.40;99.90;;;;;;5019123;28;20245;-76
2021/07/19 00:03:05;;;;;;;4.40;4.03;;;24.40;99.90;;;;;;5021627;28;20196;-75
2021/07/19 00:05:30;;;;;;;10.60;4.20;;;24.50;99.90;;;;;;5019669;28;20573;-76
2021/07/19 00:07:56;;;;;;;4.80;4.33;;;24.30;99.90;;;;;;5022044;28;20573;-74
2021/07/19 00:10:23;;;;;;;4.53;4.10;;;24.40;99.90;;;;;;5022111;28;20196;-73
2021/07/19 00:12:49;;;;;;;4.70;4.30;;;24.30;99.90;;;;;;5022115;28;20191;-76
2021/07/19 00:15:26;;;;;;;6.30;4.57;;;24.40;99.90;;;;;;5019149;28;20471;-74
2021/07/19 00:17:53;;;;;;;4.70;4.13;;;24.20;99.90;;;;;;5020555;28;20463;-74
2021/07/19 00:20:19;;;;;;;4.30;3.93;;;24.00;99.90;;;;;;5021531;28;20439;-75
2021/07/19 00:22:45;;;;;;;4.70;4.20;;;23.80;99.90;;;;;;5019904;28;20457;-74
2021/07/19 00:25:14;;;;;;;4.13;3.80;;;23.80;99.90;;;;;;5002993;28;20473;-75
2021/07/19 00:27:42;;;;;;;7.40;4.33;;;23.90;99.90;;;;;;5022369;28;20427;-74
2021/07/19 00:30:10;;;;;;;4.37;3.93;;;23.70;99.90;;;;;;5020555;28;20532;-76
2021/07/19 00:32:36;;;;;;;5.27;4.40;;;23.90;99.90;;;;;;5019041;28;20443;-76
2021/07/19 00:35:03;;;;;;;4.80;4.40;;;24.00;99.90;;;;;;5020737;28;20522;-76
2021/07/19 00:37:29;;;;;;;6.10;4.60;;;23.80;99.90;;;;;;5020393;28;20462;-75
2021/07/19 00:39:54;;;;;;;4.60;4.20;;;23.80;99.90;;;;;;5022569;28;20419;-75
2021/07/19 00:42:20;;;;;;;5.37;4.03;;;23.80;99.90;;;;;;5019737;28;20550;-76
2021/07/19 00:44:45;;;;;;;5.00;4.50;;;23.90;99.90;;;;;;5020101;28;20243;-75
2021/07/19 00:47:11;;;;;;;5.37;4.20;;;23.70;99.90;;;;;;5024618;28;20739;-76
2021/07/19 00:49:38;;;;;;;4.60;3.67;;;23.50;99.90;;;;;;5024985;28;20176;-75
2021/07/19 00:52:04;;;;;;;6.23;4.30;;;23.40;99.90;;;;;;5023577;28;20231;-75
2021/07/19 00:54:34;;;;;;;4.70;4.30;;;23.30;99.90;;;;;;5023282;28;20466;-75
2021/07/19 00:57:02;;;;;;;4.83;4.33;;;23.10;99.90;;;;;;4997620;28;20189;-76
2021/07/19 00:59:30;;;;;;;5.60;4.47;;;23.30;99.90;;;;;;5024872;28;20439;-74
2021/07/19 01:01:58;;;;;;;6.83;4.07;;;23.60;99.90;;;;;;5021636;28;20552;-74
2021/07/19 01:04:26;;;;;;;5.30;4.80;;;23.80;99.90;;;;;;5025592;28;20466;-75
2021/07/19 01:06:56;;;;;;;4.80;4.40;;;23.60;99.90;;;;;;5023956;28;20415;-74
2021/07/19 01:09:23;;;;;;;4.40;4.00;;;23.60;99.90;;;;;;5007722;28;20818;-74
2021/07/19 01:11:48;;;;;;;5.53;3.90;;;23.50;99.90;;;;;;5025375;28;20554;-75
2021/07/19 01:14:14;;;;;;;6.97;4.10;;;23.50;99.90;;;;;;5024609;28;21304;-75
2021/07/19 01:16:40;;;;;;;4.33;3.93;;;23.30;99.90;;;;;;5024387;28;20185;-74
2021/07/19 01:19:07;;;;;;;4.20;3.80;;;23.20;99.90;;;;;;5024566;28;20279;-74
2021/07/19 01:21:45;;;;;;;4.70;4.30;;;23.00;99.90;;;;;;5025468;28;20205;-74
2021/07/19 01:24:32;;;;;;;4.43;4.03;;;23.10;99.90;;;;;;5022018;28;21039;-74
2021/07/19 01:27:13;;;;;;;5.07;4.50;;;23.30;99.90;;;;;;5022437;28;20431;-75
2021/07/19 01:29:40;;;;;;;5.30;4.73;;;23.20;99.90;;;;;;5025090;28;21703;-75
2021/07/19 01:32:07;;;;;;;7.70;4.83;;;23.30;99.90;;;;;;5020443;28;21253;-75
2021/07/19 01:34:35;;;;;;;5.40;4.57;;;23.40;99.90;;;;;;5023317;28;20478;-74
2021/07/19 01:37:02;;;;;;;5.03;4.53;;;23.20;99.90;;;;;;5004143;28;20443;-74
2021/07/19 01:39:32;;;;;;;5.37;4.50;;;23.10;99.90;;;;;;5023920;28;20877;-75
2021/07/19 01:42:00;;;;;;;4.93;4.43;;;23.20;99.90;;;;;;5023438;28;20465;-74
2021/07/19 01:44:26;;;;;;;4.90;4.30;;;23.20;99.90;;;;;;5022284;28;20466;-75
2021/07/19 01:46:54;;;;;;;5.20;4.30;;;23.30;99.90;;;;;;5025344;28;20431;-74
2021/07/19 01:49:24;;;;;;;8.47;4.73;;;23.30;99.90;;;;;;5022386;28;20453;-75
2021/07/19 01:51:51;;;;;;;7.37;4.80;;;23.30;99.90;;;;;;5024150;28;20427;-75
2021/07/19 01:54:18;;;;;;;5.47;4.20;;;23.40;99.90;;;;;;5021611;28;20487;-75
2021/07/19 01:56:45;;;;;;;5.23;4.80;;;23.30;99.90;;;;;;5022135;28;20463;-75
2021/07/19 01:59:12;;;;;;;6.10;4.30;;;23.30;99.90;;;;;;5022603;28;20423;-75
2021/07/19 02:01:39;;;;;;;7.40;4.47;;;23.20;99.90;;;;;;5023110;28;20471;-76
2021/07/19 02:04:05;;;;;;;4.40;4.00;;;23.20;99.90;;;;;;5022826;28;20479;-76
2021/07/19 02:06:31;;;;;;;4.90;4.40;;;23.30;99.90;;;;;;5023505;28;20440;-75
2021/07/19 02:09:03;;;;;;;4.80;4.40;;;23.10;99.90;;;;;;5022782;28;20415;-75
2021/07/19 02:11:30;;;;;;;5.40;4.00;;;23.10;99.90;;;;;;5021087;28;20492;-75
2021/07/19 02:13:58;;;;;;;5.23;3.93;;;23.20;99.90;;;;;;5022670;28;20445;-75
2021/07/19 02:16:25;;;;;;;6.33;3.90;;;23.10;99.90;;;;;;5023181;28;20442;-75
2021/07/19 02:18:52;;;;;;;5.33;4.37;;;23.10;99.90;;;;;;5021373;28;20516;-75
2021/07/19 02:21:23;;;;;;;4.20;3.70;;;23.00;99.90;;;;;;5022180;28;20438;-75
2021/07/19 02:23:50;;;;;;;5.13;4.60;;;23.00;99.90;;;;;;5023544;28;20479;-75
2021/07/19 02:26:17;;;;;;;6.10;4.17;;;22.90;99.90;;;;;;5021309;28;20423;-76
2021/07/19 02:28:43;;;;;;;4.40;4.00;;;22.90;99.90;;;;;;5020885;28;21069;-75
2021/07/19 02:31:09;;;;;;;4.90;3.93;;;22.70;99.90;;;;;;5022425;28;20432;-76
2021/07/19 02:33:37;;;;;;;6.10;5.17;;;22.70;99.90;;;;;;5020505;28;20470;-76
2021/07/19 02:36:07;;;;;;;4.53;4.13;;;22.70;99.90;;;;;;5020147;28;20447;-75
2021/07/19 02:38:33;;;;;;;7.00;4.53;;;22.90;99.90;;;;;;5021308;28;20542;-77
2021/07/19 02:41:00;;;;;;;4.87;4.37;;;22.90;99.90;;;;;;5025114;28;20423;-76
2021/07/19 02:43:27;;;;;;;5.17;3.90;;;22.90;99.90;;;;;;5003455;28;20487;-74
2021/07/19 02:45:56;;;;;;;4.77;4.27;;;22.90;99.90;;;;;;5022285;28;20420;-77
2021/07/19 02:48:27;;;;;;;6.00;4.23;;;23.00;99.90;;;;;;5023182;28;20478;-75
2021/07/19 02:50:55;;;;;;;5.03;4.57;;;22.90;99.90;;;;;;5019560;28;20459;-75
2021/07/19 02:53:23;;;;;;;4.60;4.17;;;22.80;99.90;;;;;;5023540;28;20435;-76
2021/07/19 02:55:49;;;;;;;5.73;4.57;;;22.70;99.90;;;;;;5022854;28;20465;-76
2021/07/19 02:58:17;;;;;;;6.50;4.30;;;22.60;99.90;;;;;;5021763;28;20440;-74
2021/07/19 03:00:48;;;;;;;4.30;3.90;;;22.50;99.90;;;;;;5020983;28;20493;-75
2021/07/19 03:03:29;;;;;;;6.60;4.40;;;22.50;99.90;;;;;;5022552;28;20474;-76
2021/07/19 03:06:06;;;;;;;4.77;4.07;;;22.40;99.90;;;;;;5006355;28;20427;-75
2021/07/19 03:08:38;;;;;;;5.10;4.30;;;22.40;99.90;;;;;;5019588;28;20438;-73
2021/07/19 03:11:09;;;;;;;4.83;3.93;;;22.30;99.90;;;;;;5022418;28;20788;-76
2021/07/19 03:13:37;;;;;;;6.30;4.03;;;22.10;99.90;;;;;;5023079;28;20534;-75
2021/07/19 03:16:05;;;;;;;8.90;4.50;;;22.20;99.90;;;;;;5020517;28;20439;-75
2021/07/19 03:18:35;;;;;;;6.00;4.03;;;22.20;99.90;;;;;;5022918;28;20447;-76
2021/07/19 03:21:02;;;;;;;7.53;3.73;;;22.10;99.90;;;;;;5021238;28;20888;-75
2021/07/19 03:23:30;;;;;;;7.00;4.30;;;22.20;99.90;;;;;;5022795;28;20474;-75
2021/07/19 03:25:59;;;;;;;6.97;4.50;;;22.20;99.90;;;;;;5022073;28;20446;-76
2021/07/19 03:28:25;;;;;;;4.30;3.90;;;21.90;99.90;;;;;;5019792;28;20459;-76
2021/07/19 03:30:52;;;;;;;4.53;4.13;;;21.80;99.90;;;;;;5022766;28;20438;-75
2021/07/19 03:33:18;;;;;;;5.43;4.10;;;21.90;99.90;;;;;;5021174;28;20519;-75
2021/07/19 03:35:45;;;;;;;9.87;5.20;;;22.10;99.90;;;;;;5022180;28;20435;-75
2021/07/19 03:38:14;;;;;;;3.90;3.60;;;21.90;99.90;;;;;;5021654;28;20815;-75
2021/07/19 03:40:41;;;;;;;5.50;4.23;;;21.90;99.90;;;;;;5023273;28;20420;-77
2021/07/19 03:43:07;;;;;;;5.00;4.60;;;22.10;99.90;;;;;;5023536;28;20816;-76
2021/07/19 03:45:34;;;;;;;4.03;3.70;;;22.00;99.90;;;;;;5020780;28;20469;-75
2021/07/19 03:48:01;;;;;;;5.70;3.80;;;22.00;99.90;;;;;;5021875;28;21021;-76
2021/07/19 03:50:30;;;;;;;4.90;4.50;;;22.10;99.90;;;;;;5020499;28;20431;-75
2021/07/19 03:52:56;;;;;;;12.70;4.57;;;22.20;99.90;;;;;;5022763;28;20984;-75
2021/07/19 03:55:21;;;;;;;4.47;4.07;;;22.40;99.90;;;;;;5003779;28;20462;-74
2021/07/19 03:57:49;;;;;;;5.80;5.20;;;22.30;99.90;;;;;;5021995;28;20431;-76
2021/07/19 04:00:17;;;;;;;5.00;4.10;;;22.30;99.90;;;;;;5022033;28;20883;-75
2021/07/19 04:02:52;;;;;;;4.67;3.87;;;22.30;99.90;;;;;;5020007;28;20450;-74
2021/07/19 04:05:21;;;;;;;6.60;4.60;;;22.10;99.90;;;;;;5004723;28;20478;-74
2021/07/19 04:07:48;;;;;;;6.47;4.13;;;21.90;99.90;;;;;;5022256;28;20862;-74
2021/07/19 04:10:17;;;;;;;4.60;4.20;;;22.10;99.90;;;;;;5021231;28;20477;-76
2021/07/19 04:12:51;;;;;;;6.10;3.80;;;21.90;99.90;;;;;;5022369;28;20443;-74
2021/07/19 04:15:18;;;;;;;5.40;4.10;;;21.90;99.90;;;;;;5021943;28;20466;-75
2021/07/19 04:17:46;;;;;;;8.40;4.67;;;21.90;99.90;;;;;;5020730;28;20687;-76
2021/07/19 04:20:17;;;;;;;5.70;4.23;;;21.80;99.90;;;;;;5005832;28;20469;-76
2021/07/19 04:22:43;;;;;;;8.33;4.60;;;21.60;99.90;;;;;;5024446;28;20439;-76
2021/07/19 04:25:11;;;;;;;5.30;4.77;;;21.70;99.90;;;;;;5024017;28;20554;-76
2021/07/19 04:27:38;;;;;;;5.67;4.97;;;21.80;99.90;;;;;;5025453;28;20473;-74
2021/07/19 04:30:05;;;;;;;9.40;4.80;;;21.50;99.90;;;;;;5024008;28;20431;-75
2021/07/19 04:32:32;;;;;;;8.00;5.40;;;21.50;99.90;;;;;;5024359;28;20461;-74
2021/07/19 04:34:57;;;;;;;6.00;5.07;;;21.70;99.90;;;;;;5024235;28;20459;-74
2021/07/19 04:37:23;;;;;;;5.23;4.73;;;21.90;99.90;;;;;;5024426;28;20451;-76
2021/07/19 04:39:49;;;;;;;5.30;4.20;;;22.00;99.90;;;;;;5025837;28;20200;-76
2021/07/19 04:42:15;;;;;;;6.43;4.87;;;22.10;99.90;;;;;;5023900;28;20607;-77
2021/07/19 04:44:41;;;;;;;5.10;4.60;;;22.20;99.90;;;;;;5022630;28;20474;-77
2021/07/19 04:47:07;;;;;;;5.93;4.43;;;22.30;99.90;;;;;;5022146;28;20632;-77
2021/07/19 04:49:37;;;;;;;4.90;4.40;;;22.30;99.90;;;;;;5026473;28;20427;-77
2021/07/19 04:52:03;;;;;;;10.60;4.73;;;22.30;99.90;;;;;;5023983;28;20431;-75
2021/07/19 04:54:37;;;;;;;4.80;4.40;;;22.40;99.90;;;;;;5024854;28;20485;-74
2021/07/19 04:57:05;;;;;;;6.03;4.77;;;22.30;99.90;;;;;;5024818;28;20438;-75
2021/07/19 04:59:41;;;;;;;11.53;5.37;;;22.20;99.90;;;;;;5024153;28;20532;-75
2021/07/19 05:02:13;;;;;;;5.63;4.93;;;22.30;99.90;;;;;;5025412;28;20438;-76
2021/07/19 05:04:41;;;;;;;6.40;5.20;;;22.30;99.90;;;;;;5022004;28;20562;-76
2021/07/19 05:07:07;;;;;;;8.43;4.90;;;22.30;99.90;;;;;;5024417;28;20439;-74
2021/07/19 05:09:35;;;;;;;7.53;5.70;;;22.30;99.90;;;;;;5024536;28;20526;-75
2021/07/19 05:12:01;;;;;;;11.23;5.47;;;22.00;99.90;;;;;;5023952;28;20840;-75
2021/07/19 05:14:27;;;;;;;5.63;5.13;;;22.10;99.90;;;;;;5025034;28;20614;-75
2021/07/19 05:16:53;;;;;;;7.87;6.07;;;22.20;99.90;;;;;;5022731;28;20443;-77
2021/07/19 05:19:19;;;;;;;9.77;5.70;;;22.10;99.90;;;;;;5025087;28;20467;-74
2021/07/19 05:21:45;;;;;;;6.70;5.90;;;22.20;99.90;;;;;;5025077;28;20948;-75
2021/07/19 05:24:11;;;;;;;8.67;5.20;;;22.30;99.90;;;;;;5022875;28;20478;-75
2021/07/19 05:26:37;;;;;;;5.90;5.17;;;22.30;99.90;;;;;;5024908;28;20196;-76
2021/07/19 05:29:04;;;;;;;6.80;5.80;;;22.30;99.90;;;;;;5023214;28;20323;-76
2021/07/19 05:31:30;;;;;;;6.87;6.17;;;22.40;99.90;;;;;;5022250;28;20497;-75
2021/07/19 05:33:56;;;;;;;8.87;5.17;;;22.30;99.90;;;;;;5023946;28;21000;-75
2021/07/19 05:36:22;;;;;;;8.07;5.50;;;22.10;99.90;;;;;;5024305;28;20191;-77
2021/07/19 05:38:48;;;;;;;6.83;5.50;;;22.20;99.90;;;;;;5022908;28;20435;-76
2021/07/19 05:41:14;;;;;;;8.70;5.20;;;22.20;99.90;;;;;;5023668;28;20235;-75
2021/07/19 05:43:40;;;;;;;8.40;5.70;;;22.30;99.90;;;;;;5024240;28;20599;-76
2021/07/19 05:46:06;;;;;;;8.90;6.10;;;22.30;99.90;;;;;;5022391;28;20858;-76
2021/07/19 05:48:32;;;;;;;12.70;8.10;;;22.40;99.90;;;;;;5020940;28;20447;-75
2021/07/19 05:50:58;;;;;;;9.00;5.63;;;22.30;99.90;;;;;;5021309;28;20802;-77
2021/07/19 05:53:24;;;;;;;6.30;5.70;;;22.20;99.90;;;;;;5024261;28;20200;-76
2021/07/19 05:55:50;;;;;;;5.80;5.20;;;22.10;99.90;;;;;;5025953;28;20870;-76
2021/07/19 05:58:16;;;;;;;7.30;6.03;;;22.10;99.90;;;;;;5020458;28;20435;-76
2021/07/19 06:00:42;;;;;;;8.77;6.50;;;22.20;99.90;;;;;;5023949;28;20415;-77
2021/07/19 06:03:08;;;;;;;9.10;6.70;;;22.20;99.90;;;;;;5023336;28;20538;-73
2021/07/19 06:05:36;;;;;;;11.73;7.60;;;22.10;99.90;;;;;;5005705;28;20454;-75
2021/07/19 06:08:02;;;;;;;9.43;5.63;;;22.20;99.90;;;;;;5018017;28;20470;-76
2021/07/19 06:10:27;;;;;;;13.23;6.33;;;22.20;99.90;;;;;;5023646;28;20874;-75
2021/07/19 06:12:53;;;;;;;9.73;7.20;;;22.30;99.90;;;;;;5021484;28;20439;-76
2021/07/19 06:15:20;;;;;;;9.37;6.20;;;22.30;99.90;;;;;;5026329;28;20220;-74
2021/07/19 06:17:46;;;;;;;8.27;6.50;;;22.30;99.90;;;;;;5026847;28;20189;-74
2021/07/19 06:20:19;;;;;;;8.53;5.87;;;22.30;99.90;;;;;;5026092;28;20568;-75
2021/07/19 06:22:47;;;;;;;8.20;6.10;;;22.40;99.90;;;;;;5025120;28;20431;-74
2021/07/19 06:25:14;;;;;;;8.27;6.10;;;22.30;99.90;;;;;;5026883;28;20479;-74
2021/07/19 06:27:44;;;;;;;9.57;7.07;;;22.30;99.90;;;;;;5028409;28;20446;-73
2021/07/19 06:30:13;;;;;;;8.67;7.00;;;22.30;99.90;;;;;;5028983;28;20426;-74
2021/07/19 06:32:39;;;;;;;8.47;6.00;;;22.40;99.90;;;;;;5028249;28;20952;-73
2021/07/19 06:35:05;;;;;;;7.17;6.47;;;22.50;99.90;;;;;;5028519;28;20443;-73
2021/07/19 06:37:32;;;;;;;10.87;7.30;;;22.60;99.90;;;;;;5023988;28;20431;-74
2021/07/19 06:39:57;;;;;;;9.27;6.90;;;22.50;99.90;;;;;;5028312;28;20435;-74
2021/07/19 06:42:23;;;;;;;13.93;8.00;;;22.50;99.90;;;;;;5027497;28;20434;-74
2021/07/19 06:44:53;;;;;;;7.40;6.57;;;22.60;99.90;;;;;;5024993;28;20244;-75
2021/07/19 06:47:19;;;;;;;8.40;5.43;;;22.70;99.90;;;;;;5009568;28;20485;-75
2021/07/19 06:49:45;;;;;;;15.00;6.73;;;22.50;99.90;;;;;;5026401;28;20419;-75
2021/07/19 06:52:11;;;;;;;6.23;5.63;;;22.60;99.90;;;;;;5029700;28;20442;-74
2021/07/19 06:54:36;;;;;;;6.70;5.90;;;22.80;99.90;;;;;;5029353;28;20247;-74
2021/07/19 06:57:02;;;;;;;7.03;6.23;;;22.90;99.90;;;;;;5037834;28;20272;-74
2021/07/19 06:59:28;;;;;;;7.33;6.17;;;22.90;99.90;;;;;;5029029;28;20200;-73
2021/07/19 07:01:54;;;;;;;8.03;6.63;;;23.00;99.90;;;;;;5007736;28;20554;-75
2021/07/19 07:04:19;;;;;;;9.40;5.83;;;23.00;99.90;;;;;;5024868;28;20224;-74
2021/07/19 07:06:45;;;;;;;9.87;7.10;;;23.10;99.90;;;;;;5026412;28;20263;-74
2021/07/19 07:09:11;;;;;;;11.63;7.30;;;23.10;99.90;;;;;;5007839;28;20193;-75
2021/07/19 07:11:36;;;;;;;7.70;7.00;;;23.00;99.90;;;;;;5026615;28;20177;-75
2021/07/19 07:14:03;;;;;;;11.67;7.20;;;23.00;99.90;;;;;;5006788;28;20215;-75
2021/07/19 07:16:29;;;;;;;6.87;6.20;;;23.10;99.90;;;;;;5026603;28;20195;-74
2021/07/19 07:18:55;;;;;;;6.37;5.77;;;23.10;99.90;;;;;;5021992;28;20443;-74
2021/07/19 07:21:21;;;;;;;11.60;6.80;;;23.20;99.90;;;;;;5004190;28;20200;-74
2021/07/19 07:23:47;;;;;;;6.83;6.13;;;23.30;99.90;;;;;;5021834;28;20479;-73
2021/07/19 07:26:13;;;;;;;11.70;6.30;;;23.20;99.90;;;;;;5017767;28;20207;-73
2021/07/19 07:28:38;;;;;;;8.27;5.50;;;23.30;99.90;;;;;;5005889;28;20192;-73
2021/07/19 07:31:04;;;;;;;7.63;4.90;;;23.30;99.90;;;;;;5022333;28;20549;-73
2021/07/19 07:33:30;;;;;;;6.57;5.70;;;23.20;99.90;;;;;;5021757;28;20227;-73
2021/07/19 07:35:55;;;;;;;14.53;5.47;;;23.30;99.90;;;;;;5019250;28;20562;-73
2021/07/19 07:38:21;;;;;;;9.50;6.10;;;23.30;99.90;;;;;;5020664;28;20200;-72
2021/07/19 07:40:48;;;;;;;7.50;6.00;;;23.30;99.90;;;;;;5011553;28;20214;-74
2021/07/19 07:43:14;;;;;;;6.23;5.60;;;23.40;99.90;;;;;;4999372;28;20835;-74
2021/07/19 07:45:40;;;;;;;7.07;5.83;;;23.40;99.90;;;;;;5021269;28;20434;-74
2021/07/19 07:48:06;;;;;;;8.00;5.87;;;23.40;99.90;;;;;;5019921;28;20191;-73
2021/07/19 07:50:31;;;;;;;9.60;6.17;;;23.60;99.90;;;;;;5020367;28;20227;-74
2021/07/19 07:52:57;;;;;;;8.90;5.87;;;23.60;99.90;;;;;;5020313;28;20746;-73
2021/07/19 07:55:23;;;;;;;8.83;6.27;;;23.70;99.90;;;;;;5021752;28;20266;-74
2021/07/19 07:57:48;;;;;;;6.27;5.70;;;23.60;99.90;;;;;;4988288;28;20628;-74
2021/07/19 08:00:17;;;;;;;10.50;7.40;;;23.70;99.90;;;;;;4995747;28;20200;-74
2021/07/19 08:02:43;;;;;;;6.67;5.53;;;23.70;99.90;;;;;;4993192;28;20652;-74
2021/07/19 08:05:13;;;;;;;10.80;5.70;;;23.80;99.90;;;;;;5016601;28;22189;-73
2021/07/19 08:07:39;;;;;;;7.07;6.33;;;23.80;99.90;;;;;;5014348;28;20451;-73
2021/07/19 08:10:09;;;;;;;7.30;6.60;;;23.90;99.90;;;;;;5021042;28;20419;-73
2021/07/19 08:12:35;;;;;;;7.53;5.70;;;23.80;99.90;;;;;;5020598;28;20522;-75
2021/07/19 08:15:03;;;;;;;11.20;7.30;;;23.70;99.90;;;;;;5018114;28;20550;-75
2021/07/19 08:17:31;;;;;;;8.70;6.90;;;23.80;99.90;;;;;;5003830;28;20961;-75
2021/07/19 08:19:57;;;;;;;12.00;7.80;;;23.80;99.90;;;;;;5010827;28;20670;-72
2021/07/19 08:22:24;;;;;;;11.80;10.37;;;24.00;99.90;;;;;;5017922;28;20948;-74
2021/07/19 08:24:50;;;;;;;13.13;8.90;;;24.10;99.90;;;;;;5001934;28;20507;-73
2021/07/19 08:27:16;;;;;;;8.83;5.40;;;24.10;99.90;;;;;;5020264;28;20536;-74
2021/07/19 08:29:42;;;;;;;10.00;7.40;;;24.10;99.90;;;;;;5022797;28;20968;-73
2021/07/19 08:32:08;;;;;;;18.97;7.80;;;24.10;99.90;;;;;;5021866;28;20443;-73
2021/07/19 08:34:34;;;;;;;7.27;6.30;;;24.10;99.90;;;;;;5022493;28;20212;-74
2021/07/19 08:37:01;;;;;;;8.73;6.80;;;24.10;99.90;;;;;;5017601;28;20953;-73
2021/07/19 08:39:27;;;;;;;8.33;7.40;;;24.10;99.90;;;;;;5032780;28;20526;-73
2021/07/19 08:41:52;;;;;;;13.43;10.80;;;24.20;99.90;;;;;;5045035;28;20455;-73
2021/07/19 08:44:21;;;;;;;9.33;7.30;;;24.30;99.90;;;;;;5025321;28;20224;-73
2021/07/19 08:46:48;;;;;;;10.97;7.93;;;24.30;99.90;;;;;;5031930;28;20253;-72
2021/07/19 08:49:13;;;;;;;6.30;5.50;;;24.40;99.90;;;;;;5042116;28;20647;-75
2021/07/19 08:51:42;;;;;;;11.17;8.73;;;24.40;99.90;;;;;;5021122;28;20449;-74
2021/07/19 08:54:12;;;;;;;15.73;12.87;;;24.40;99.90;;;;;;5018538;28;20578;-74
2021/07/19 08:56:40;;;;;;;8.27;7.50;;;24.50;99.90;;;;;;5021835;28;20430;-74
2021/07/19 08:59:07;;;;;;;7.83;6.47;;;24.60;99.90;;;;;;5003836;28;20431;-74
2021/07/19 09:01:36;;;;;;;7.63;6.17;;;24.70;99.90;;;;;;5004113;28;20461;-74
2021/07/19 09:04:02;;;;;;;7.03;5.30;;;24.70;99.90;;;;;;5004453;28;20529;-74
2021/07/19 09:06:28;;;;;;;9.07;6.87;;;24.70;99.90;;;;;;5021921;28;20447;-75
2021/07/19 09:08:54;;;;;;;7.53;6.50;;;24.70;99.90;;;;;;5022126;28;20227;-74
2021/07/19 09:11:21;;;;;;;7.40;5.93;;;24.70;99.90;;;;;;5023353;28;20185;-75
2021/07/19 09:14:03;;;;;;;5.87;5.23;;;24.70;99.90;;;;;;5022491;28;20479;-74
2021/07/19 09:16:49;;;;;;;6.73;6.13;;;24.80;99.90;;;;;;5022553;28;20497;-74
2021/07/19 09:19:23;;;;;;;11.53;9.37;;;24.90;99.90;;;;;;4999546;28;20509;-73
2021/07/19 09:21:54;;;;;;;13.90;8.90;;;24.90;99.90;;;;;;5004519;28;20787;-74
2021/07/19 09:24:22;;;;;;;5.63;5.13;;;25.00;99.90;;;;;;5023263;28;20478;-74
2021/07/19 09:26:49;;;;;;;13.57;6.10;;;25.00;99.90;;;;;;5023815;28;20427;-75
2021/07/19 09:29:19;;;;;;;14.60;6.60;;;25.10;99.90;;;;;;5024497;28;20419;-74
2021/07/19 09:31:55;;;;;;;6.00;5.40;;;25.10;99.90;;;;;;5024914;28;20917;-73
2021/07/19 09:34:24;;;;;;;9.77;6.40;;;25.20;99.90;;;;;;5022259;28;20486;-73
2021/07/19 09:37:03;;;;;;;7.73;6.20;;;25.20;99.90;;;;;;5023804;28;20522;-73
2021/07/19 09:39:31;;;;;;;8.23;6.27;;;25.10;99.90;;;;;;5026290;28;20430;-74
2021/07/19 09:42:08;;;;;;;5.90;5.30;;;25.20;99.90;;;;;;5022157;28;20960;-74
2021/07/19 09:44:34;;;;;;;10.93;6.33;;;25.20;99.90;;;;;;5023036;28;20475;-74
2021/07/19 09:47:01;;;;;;;9.17;6.13;;;25.30;99.90;;;;;;5021921;28;20497;-74
2021/07/19 09:49:29;;;;;;;7.93;5.90;;;25.50;99.90;;;;;;5019875;28;20439;-75
2021/07/19 09:52:00;;;;;;;9.17;5.60;;;25.50;99.90;;;;;;5023273;28;20458;-73
2021/07/19 09:54:53;;;;;;;9.90;6.83;;;25.60;99.90;;;;;;5022242;28;20467;-74
2021/07/19 09:57:23;;;;;;;7.30;5.67;;;25.70;99.90;;;;;;5005135;28;20446;-74
2021/07/19 09:59:52;;;;;;;8.33;6.00;;;25.80;99.90;;;;;;5005938;28;20435;-74
2021/07/19 10:02:37;;;;;;;6.23;5.40;;;25.80;99.90;;;;;;5022945;28;20438;-73
2021/07/19 10:05:08;;;;;;;9.50;5.73;;;25.90;99.90;;;;;;5023739;28;20887;-73
2021/07/19 10:07:35;;;;;;;6.70;5.37;;;25.80;99.90;;;;;;5022552;28;21454;-74
2021/07/19 10:10:05;;;;;;;8.80;5.53;;;25.80;99.90;;;;;;5022657;28;20435;-74
2021/07/19 10:12:31;;;;;;;6.43;5.50;;;25.80;99.90;;;;;;5020820;28;20963;-73
2021/07/19 10:15:00;;;;;;;9.43;5.37;;;25.80;99.90;;;;;;5021839;28;20462;-73
2021/07/19 10:17:26;;;;;;;7.20;6.10;;;25.90;99.90;;;;;;5023177;28;20863;-74
2021/07/19 10:19:56;;;;;;;6.93;5.40;;;26.00;99.90;;;;;;5021495;28;20451;-74
2021/07/19 10:22:21;;;;;;;13.90;4.87;;;26.00;99.90;;;;;;5023374;28;20479;-74
2021/07/19 10:24:47;;;;;;;7.97;5.90;;;26.00;99.90;;;;;;5021148;28;20503;-74
2021/07/19 10:27:22;;;;;;;16.33;5.70;;;26.10;99.90;;;;;;5022928;28;20188;-73
2021/07/19 10:29:49;;;;;;;6.30;4.57;;;26.10;99.90;;;;;;5004913;28;20184;-74
2021/07/19 10:32:21;;;;;;;6.47;4.80;;;26.10;99.90;;;;;;5022276;28;20455;-76
2021/07/19 10:34:54;;;;;;;5.87;4.67;;;26.00;99.90;;;;;;5023790;28;21185;-74
2021/07/19 10:37:27;;;;;;;10.43;5.63;;;26.20;99.90;;;;;;5019948;28;20455;-74
2021/07/19 10:39:58;;;;;;;7.33;4.70;;;26.10;99.90;;;;;;5022887;28;20446;-74
2021/07/19 10:42:40;;;;;;;18.90;7.67;;;26.30;99.90;;;;;;5022661;28;20941;-73
2021/07/19 10:45:12;;;;;;;8.97;5.50;;;26.50;99.90;;;;;;5017842;28;20493;-75
2021/07/19 10:47:56;;;;;;;6.53;5.30;;;26.70;99.90;;;;;;5020029;28;20435;-73
2021/07/19 10:50:26;;;;;;;5.70;4.90;;;26.70;99.90;;;;;;5021127;28;20494;-74
2021/07/19 10:52:52;;;;;;;10.10;4.67;;;26.70;99.90;;;;;;5018031;28;20419;-73
2021/07/19 10:55:32;;;;;;;6.17;4.90;;;26.60;99.90;;;;;;5019249;28;20507;-75
2021/07/19 10:58:06;;;;;;;6.10;4.40;;;26.70;99.90;;;;;;5020133;28;20530;-73
2021/07/19 11:00:37;;;;;;;6.57;5.03;;;26.80;99.90;;;;;;5000818;28;21015;-73
2021/07/19 11:03:08;;;;;;;6.40;5.80;;;26.90;99.90;;;;;;5002770;28;20456;-74
2021/07/19 11:05:39;;;;;;;6.00;5.20;;;27.00;99.90;;;;;;5020588;28;20490;-74
2021/07/19 11:08:07;;;;;;;6.03;5.43;;;27.20;99.90;;;;;;5021024;28;20435;-74
2021/07/19 11:10:45;;;;;;;8.03;5.80;;;27.10;99.90;;;;;;5021381;28;20443;-74
2021/07/19 11:13:22;;;;;;;10.70;6.70;;;27.30;99.90;;;;;;5002987;28;20446;-73
2021/07/19 11:15:48;;;;;;;5.20;4.70;;;27.20;99.90;;;;;;5022490;28;20441;-74
2021/07/19 11:18:29;;;;;;;5.90;4.90;;;26.90;99.90;;;;;;5020491;28;20507;-74
2021/07/19 11:21:01;;;;;;;7.10;5.37;;;27.00;99.90;;;;;;5022255;28;20529;-74
2021/07/19 11:23:32;;;;;;;7.43;5.40;;;26.80;99.90;;;;;;5019174;28;20466;-74
2021/07/19 11:26:00;;;;;;;6.13;5.53;;;26.80;99.90;;;;;;5021970;28;20418;-74
2021/07/19 11:28:29;;;;;;;6.13;5.10;;;27.10;99.90;;;;;;5018865;28;20527;-74
2021/07/19 11:31:18;;;;;;;5.50;5.00;;;27.20;99.90;;;;;;5021459;28;20637;-74
2021/07/19 11:34:05;;;;;;;10.33;5.53;;;27.30;99.90;;;;;;5022199;28;20540;-73
2021/07/19 11:36:33;;;;;;;10.83;6.40;;;27.30;99.90;;;;;;5012931;28;20968;-73
2021/07/19 11:39:01;;;;;;;6.07;4.43;;;27.50;99.90;;;;;;5017958;28;20486;-74
2021/07/19 11:41:33;;;;;;;13.63;7.07;;;27.70;99.90;;;;;;5017280;28;20528;-76
2021/07/19 11:44:03;;;;;;;5.37;4.87;;;27.90;99.90;;;;;;5018020;28;20471;-74
2021/07/19 11:46:37;;;;;;;9.30;4.63;;;28.20;99.90;;;;;;5019129;28;20969;-73
2021/07/19 11:49:12;;;;;;;11.00;5.30;;;28.50;99.90;;;;;;5019105;28;20454;-74
2021/07/19 11:51:43;;;;;;;8.50;5.40;;;28.70;99.90;;;;;;5020391;28;20427;-74
2021/07/19 11:54:16;;;;;;;9.03;5.70;;;28.70;99.90;;;;;;5019711;28;20466;-75
2021/07/19 11:56:55;;;;;;;5.70;5.20;;;28.80;99.90;;;;;;5020850;28;20421;-74
2021/07/19 11:59:22;;;;;;;6.67;5.97;;;29.00;99.90;;;;;;5021221;28;20806;-75
2021/07/19 12:02:04;;;;;;;5.53;4.50;;;29.00;99.90;;;;;;5020990;28;20439;-75
2021/07/19 12:04:40;;;;;;;5.43;5.03;;;29.20;99.90;;;;;;5018993;28;21034;-74
2021/07/19 12:07:07;;;;;;;5.63;5.13;;;29.80;99.90;;;;;;5020045;28;20474;-75
2021/07/19 12:09:33;;;;;;;11.60;5.70;;;30.40;99.90;;;;;;5022118;28;20493;-74
2021/07/19 12:12:00;;;;;;;4.77;4.27;;;31.30;99.90;;;;;;5003146;28;20426;-73
2021/07/19 12:14:26;;;;;;;5.90;4.77;;;32.60;99.90;;;;;;5002976;28;20502;-74
2021/07/19 12:16:52;;;;;;;5.53;4.47;;;33.70;99.90;;;;;;5021833;28;20454;-74
2021/07/19 12:19:19;;;;;;;7.97;4.93;;;34.70;99.90;;;;;;4983416;28;20474;-75
2021/07/19 12:21:57;;;;;;;5.43;4.77;;;35.50;96.50;;;;;;5010640;28;20216;-74
2021/07/19 12:24:27;;;;;;;8.50;4.77;;;36.10;93.00;;;;;;5011697;28;20477;-75
2021/07/19 12:26:58;;;;;;;16.57;6.33;;;37.00;90.00;;;;;;5013277;28;20421;-75
2021/07/19 12:29:27;;;;;;;8.57;5.57;;;37.40;86.20;;;;;;5003072;28;21688;-74
2021/07/19 12:31:55;;;;;;;22.93;6.60;;;;;;;;;;5019529;28;20409;-75
2021/07/19 12:34:31;;;;;;;6.43;4.40;;;39.10;77.60;;;;;;5019939;28;20429;-74
2021/07/19 12:36:58;;;;;;;4.47;3.97;;;38.90;69.90;;;;;;5018327;28;20717;-74
2021/07/19 12:39:29;;;;;;;20.57;7.83;;;38.60;67.50;;;;;;5020760;28;20438;-74
2021/07/19 12:41:56;;;;;;;10.10;4.70;;;39.30;67.20;;;;;;5022969;28;20798;-74
2021/07/19 12:44:27;;;;;;;4.80;4.40;;;39.40;64.50;;;;;;5021941;28;20517;-74
2021/07/19 12:46:54;;;;;;;4.17;3.87;;;39.50;59.40;;;;;;5025577;28;20434;-75
2021/07/19 12:49:34;;;;;;;4.33;3.87;;;39.60;58.70;;;;;;5021438;28;20430;-75
2021/07/19 12:52:08;;;;;;;9.27;6.17;;;38.80;58.20;;;;;;4992237;28;20413;-74